sensor_id;sensor_type;location;lat;lon;timestamp;temperature;humidity
52415;DHT22;38340;52.964;6.086;2022-08-21T00:00:39;14.30;99.90
52415;DHT22;38340;52.964;6.086;2022-08-21T00:03:08;14.20;99.90
52415;DHT22;38340;52.964;6.086;2022-08-21T00:05:38;14.20;99.90
52415;DHT22;38340;52.964;6.086;2022-08-21T00:08:04;14.10;99.90
52415;DHT22;38340;52.964;6.086;2022-08-21T00:10:31;14.00;99.90
52415;DHT22;38340;52.964;6.086;2022-08-21T00:12:57;14.00;99.90
52415;DHT22;38340;52.964;6.086;2022-08-21T00:15:26;13.90;99.90
52415;DHT22;38340;52.964;6.086;2022-08-21T00:17:52;14.00;99.90
52415;DHT22;38340;52.964;6.086;2022-08-21T00:20:19;14.00;99.90
52415;DHT22;38340;52.964;6.086;2022-08-21T00:22:45;13.90;99.90
52415;DHT22;38340;52.964;6.086;2022-08-21T00:25:12;13.90;99.90
52415;DHT22;38340;52.964;6.086;2022-08-21T00:27:38;13.80;99.90
52415;DHT22;38340;52.964;6.086;2022-08-21T00:30:06;13.80;99.90
52415;DHT22;38340;52.964;6.086;2022-08-21T00:32:32;13.80;99.90
52415;DHT22;38340;52.964;6.086;2022-08-21T00:34:58;13.80;99.90
52415;DHT22;38340;52.964;6.086;2022-08-21T00:37:24;13.90;99.90
52415;DHT22;38340;52.964;6.086;2022-08-21T00:39:50;13.90;99.90
52415;DHT22;38340;52.964;6.086;2022-08-21T00:42:16;13.80;99.90
52415;DHT22;38340;52.964;6.086;2022-08-21T00:44:44;13.70;99.90
52415;DHT22;38340;52.964;6.086;2022-08-21T00:47:11;13.70;99.90
52415;DHT22;38340;52.964;6.086;2022-08-21T00:49:38;13.60;99.90
52415;DHT22;38340;52.964;6.086;2022-08-21T00:52:07;13.60;99.90
52415;DHT22;38340;52.964;6.086;2022-08-21T00:54:34;13.50;99.90
52415;DHT22;38340;52.964;6.086;2022-08-21T00:57:05;13.50;99.90
52415;DHT22;38340;52.964;6.086;2022-08-21T00:59:35;13.50;99.90
52415;DHT22;38340;52.964;6.086;2022-08-21T01:02:04;13.50;99.90
52415;DHT22;38340;52.964;6.086;2022-08-21T01:04:30;13.60;99.90
52415;DHT22;38340;52.964;6.086;2022-08-21T01:06:56;13.60;99.90
52415;DHT22;38340;52.964;6.086;2022-08-21T01:09:22;13.60;99.90
52415;DHT22;38340;52.964;6.086;2022-08-21T01:11:48;13.70;99.90
52415;DHT22;38340;52.964;6.086;2022-08-21T01:14:14;13.60;99.90
52415;DHT22;38340;52.964;6.086;2022-08-21T01:16:44;13.60;99.90
52415;DHT22;38340;52.964;6.086;2022-08-21T01:19:12;13.70;99.90
52415;DHT22;38340;52.964;6.086;2022-08-21T01:21:38;13.60;99.90
52415;DHT22;38340;52.964;6.086;2022-08-21T01:24:04;13.60;99.90
52415;DHT22;38340;52.964;6.086;2022-08-21T01:26:33;13.60;99.90
52415;DHT22;38340;52.964;6.086;2022-08-21T01:32:04;13.60;99.90
52415;DHT22;38340;52.964;6.086;2022-08-21T01:34:33;13.60;99.90
52415;DHT22;38340;52.964;6.086;2022-08-21T01:36:59;13.60;99.90
52415;DHT22;38340;52.964;6.086;2022-08-21T01:39:24;13.60;99.90
52415;DHT22;38340;52.964;6.086;2022-08-21T01:41:50;13.60;99.90
52415;DHT22;38340;52.964;6.086;2022-08-21T01:44:16;13.70;99.90
52415;DHT22;38340;52.964;6.086;2022-08-21T01:46:45;13.60;99.90
52415;DHT22;38340;52.964;6.086;2022-08-21T01:49:10;13.70;99.90
52415;DHT22;38340;52.964;6.086;2022-08-21T01:51:36;13.70;99.90
52415;DHT22;38340;52.964;6.086;2022-08-21T01:54:02;13.70;99.90
52415;DHT22;38340;52.964;6.086;2022-08-21T01:56:28;13.70;99.90
52415;DHT22;38340;52.964;6.086;2022-08-21T01:58:54;13.60;99.90
52415;DHT22;38340;52.964;6.086;2022-08-21T02:01:19;13.60;99.90
52415;DHT22;38340;52.964;6.086;2022-08-21T02:03:45;13.60;99.90
52415;DHT22;38340;52.964;6.086;2022-08-21T02:06:15;13.60;99.90
52415;DHT22;38340;52.964;6.086;2022-08-21T02:08:43;13.50;99.90
52415;DHT22;38340;52.964;6.086;2022-08-21T02:11:09;13.60;99.90
52415;DHT22;38340;52.964;6.086;2022-08-21T02:13:34;13.50;99.90
52415;DHT22;38340;52.964;6.086;2022-08-21T02:16:00;13.50;99.90
52415;DHT22;38340;52.964;6.086;2022-08-21T02:18:26;13.60;99.90
52415;DHT22;38340;52.964;6.086;2022-08-21T02:20:52;13.60;99.90
52415;DHT22;38340;52.964;6.086;2022-08-21T02:23:17;13.60;99.90
52415;DHT22;38340;52.964;6.086;2022-08-21T02:25:43;13.60;99.90
52415;DHT22;38340;52.964;6.086;2022-08-21T02:28:11;13.60;99.90
52415;DHT22;38340;52.964;6.086;2022-08-21T02:30:43;13.60;99.90
52415;DHT22;38340;52.964;6.086;2022-08-21T02:33:10;13.60;99.90
52415;DHT22;38340;52.964;6.086;2022-08-21T02:35:39;13.60;99.90
52415;DHT22;38340;52.964;6.086;2022-08-21T02:38:10;13.60;99.90
52415;DHT22;38340;52.964;6.086;2022-08-21T02:40:38;13.60;99.90
52415;DHT22;38340;52.964;6.086;2022-08-21T02:43:05;13.60;99.90
52415;DHT22;38340;52.964;6.086;2022-08-21T02:45:32;13.60;99.90
52415;DHT22;38340;52.964;6.086;2022-08-21T02:48:03;13.60;99.90
52415;DHT22;38340;52.964;6.086;2022-08-21T02:50:34;13.60;99.90
52415;DHT22;38340;52.964;6.086;2022-08-21T02:53:00;13.50;99.90
52415;DHT22;38340;52.964;6.086;2022-08-21T02:55:29;13.60;99.90
52415;DHT22;38340;52.964;6.086;2022-08-21T02:57:56;13.60;99.90
52415;DHT22;38340;52.964;6.086;2022-08-21T03:00:23;13.50;99.90
52415;DHT22;38340;52.964;6.086;2022-08-21T03:02:49;13.60;99.90
52415;DHT22;38340;52.964;6.086;2022-08-21T03:05:15;13.60;99.90
52415;DHT22;38340;52.964;6.086;2022-08-21T03:07:43;13.60;99.90
52415;DHT22;38340;52.964;6.086;2022-08-21T03:10:09;13.60;99.90
52415;DHT22;38340;52.964;6.086;2022-08-21T03:12:36;13.60;99.90
52415;DHT22;38340;52.964;6.086;2022-08-21T03:15:04;13.60;99.90
52415;DHT22;38340;52.964;6.086;2022-08-21T03:17:30;13.60;99.90
52415;DHT22;38340;52.964;6.086;2022-08-21T03:19:56;13.60;99.90
52415;DHT22;38340;52.964;6.086;2022-08-21T03:22:22;13.60;99.90
52415;DHT22;38340;52.964;6.086;2022-08-21T03:24:47;13.60;99.90
52415;DHT22;38340;52.964;6.086;2022-08-21T03:27:13;13.60;99.90
52415;DHT22;38340;52.964;6.086;2022-08-21T03:29:39;13.60;99.90
52415;DHT22;38340;52.964;6.086;2022-08-21T03:32:06;13.60;99.90
52415;DHT22;38340;52.964;6.086;2022-08-21T03:34:35;13.60;99.90
52415;DHT22;38340;52.964;6.086;2022-08-21T03:37:02;13.60;99.90
52415;DHT22;38340;52.964;6.086;2022-08-21T03:39:29;13.60;99.90
52415;DHT22;38340;52.964;6.086;2022-08-21T03:41:55;13.60;99.90
52415;DHT22;38340;52.964;6.086;2022-08-21T03:44:20;13.60;99.90
52415;DHT22;38340;52.964;6.086;2022-08-21T03:46:46;13.50;99.90
52415;DHT22;38340;52.964;6.086;2022-08-21T03:49:12;13.50;99.90
52415;DHT22;38340;52.964;6.086;2022-08-21T03:51:38;13.50;99.90
52415;DHT22;38340;52.964;6.086;2022-08-21T03:54:04;13.50;99.90
52415;DHT22;38340;52.964;6.086;2022-08-21T03:56:30;13.60;99.90
52415;DHT22;38340;52.964;6.086;2022-08-21T03:58:55;13.60;99.90
52415;DHT22;38340;52.964;6.086;2022-08-21T04:01:22;13.60;99.90
52415;DHT22;38340;52.964;6.086;2022-08-21T04:03:47;13.50;99.90
52415;DHT22;38340;52.964;6.086;2022-08-21T04:06:13;13.60;99.90
52415;DHT22;38340;52.964;6.086;2022-08-21T04:08:39;13.60;99.90
52415;DHT22;38340;52.964;6.086;2022-08-21T04:11:07;13.60;99.90
52415;DHT22;38340;52.964;6.086;2022-08-21T04:13:33;13.50;99.90
52415;DHT22;38340;52.964;6.086;2022-08-21T04:15:59;13.60;99.90
52415;DHT22;38340;52.964;6.086;2022-08-21T04:18:25;13.50;99.90
52415;DHT22;38340;52.964;6.086;2022-08-21T04:20:52;13.50;99.90
52415;DHT22;38340;52.964;6.086;2022-08-21T04:23:20;13.60;99.90
52415;DHT22;38340;52.964;6.086;2022-08-21T04:25:46;13.50;99.90
52415;DHT22;38340;52.964;6.086;2022-08-21T04:28:12;13.50;99.90
52415;DHT22;38340;52.964;6.086;2022-08-21T04:30:37;13.50;99.90
52415;DHT22;38340;52.964;6.086;2022-08-21T04:33:03;13.60;99.90
52415;DHT22;38340;52.964;6.086;2022-08-21T04:35:29;13.60;99.90
52415;DHT22;38340;52.964;6.086;2022-08-21T04:37:56;13.60;99.90
52415;DHT22;38340;52.964;6.086;2022-08-21T04:40:23;13.60;99.90
52415;DHT22;38340;52.964;6.086;2022-08-21T04:43:00;13.60;99.90
52415;DHT22;38340;52.964;6.086;2022-08-21T04:45:30;13.70;99.90
52415;DHT22;38340;52.964;6.086;2022-08-21T04:47:58;13.70;99.90
52415;DHT22;38340;52.964;6.086;2022-08-21T04:50:31;13.60;99.90
52415;DHT22;38340;52.964;6.086;2022-08-21T04:53:01;13.70;99.90
52415;DHT22;38340;52.964;6.086;2022-08-21T04:55:27;13.70;99.90
52415;DHT22;38340;52.964;6.086;2022-08-21T04:57:55;13.70;99.90
52415;DHT22;38340;52.964;6.086;2022-08-21T05:00:23;13.80;99.90
52415;DHT22;38340;52.964;6.086;2022-08-21T05:02:51;13.80;99.90
52415;DHT22;38340;52.964;6.086;2022-08-21T05:05:20;13.90;99.90
52415;DHT22;38340;52.964;6.086;2022-08-21T05:07:46;13.90;99.90
52415;DHT22;38340;52.964;6.086;2022-08-21T05:10:13;14.00;99.90
52415;DHT22;38340;52.964;6.086;2022-08-21T05:12:40;13.90;99.90
52415;DHT22;38340;52.964;6.086;2022-08-21T05:15:08;14.10;99.90
52415;DHT22;38340;52.964;6.086;2022-08-21T05:17:33;14.10;99.90
52415;DHT22;38340;52.964;6.086;2022-08-21T05:19:59;14.20;99.90
52415;DHT22;38340;52.964;6.086;2022-08-21T05:22:25;14.30;99.90
52415;DHT22;38340;52.964;6.086;2022-08-21T05:24:51;14.30;99.90
52415;DHT22;38340;52.964;6.086;2022-08-21T05:27:17;14.40;99.90
52415;DHT22;38340;52.964;6.086;2022-08-21T05:29:43;14.50;99.90
52415;DHT22;38340;52.964;6.086;2022-08-21T05:32:13;14.60;99.90
52415;DHT22;38340;52.964;6.086;2022-08-21T05:34:38;14.70;99.90
52415;DHT22;38340;52.964;6.086;2022-08-21T05:37:05;14.80;99.90
52415;DHT22;38340;52.964;6.086;2022-08-21T05:39:31;15.00;99.90
52415;DHT22;38340;52.964;6.086;2022-08-21T05:41:57;15.10;99.90
52415;DHT22;38340;52.964;6.086;2022-08-21T05:44:23;15.20;99.90
52415;DHT22;38340;52.964;6.086;2022-08-21T05:46:48;15.40;99.90
52415;DHT22;38340;52.964;6.086;2022-08-21T05:49:14;15.50;99.90
52415;DHT22;38340;52.964;6.086;2022-08-21T05:51:40;15.60;99.90
52415;DHT22;38340;52.964;6.086;2022-08-21T05:54:06;15.70;99.90
52415;DHT22;38340;52.964;6.086;2022-08-21T05:56:32;15.70;99.90
52415;DHT22;38340;52.964;6.086;2022-08-21T05:58:58;15.80;99.90
52415;DHT22;38340;52.964;6.086;2022-08-21T06:01:24;16.00;99.90
52415;DHT22;38340;52.964;6.086;2022-08-21T06:03:50;16.10;99.90
52415;DHT22;38340;52.964;6.086;2022-08-21T06:06:16;16.20;99.90
52415;DHT22;38340;52.964;6.086;2022-08-21T06:08:42;16.30;99.90
52415;DHT22;38340;52.964;6.086;2022-08-21T06:11:08;16.40;99.90
52415;DHT22;38340;52.964;6.086;2022-08-21T06:13:35;16.50;99.90
52415;DHT22;38340;52.964;6.086;2022-08-21T06:16:08;16.60;99.90
52415;DHT22;38340;52.964;6.086;2022-08-21T06:18:35;16.60;99.90
52415;DHT22;38340;52.964;6.086;2022-08-21T06:21:01;16.80;99.90
52415;DHT22;38340;52.964;6.086;2022-08-21T06:23:27;17.00;99.90
52415;DHT22;38340;52.964;6.086;2022-08-21T06:25:53;17.10;99.90
52415;DHT22;38340;52.964;6.086;2022-08-21T06:28:19;17.20;99.90
52415;DHT22;38340;52.964;6.086;2022-08-21T06:30:45;17.30;99.90
52415;DHT22;38340;52.964;6.086;2022-08-21T06:33:10;17.40;99.90
52415;DHT22;38340;52.964;6.086;2022-08-21T06:35:36;17.50;99.90
52415;DHT22;38340;52.964;6.086;2022-08-21T06:38:03;17.70;99.90
52415;DHT22;38340;52.964;6.086;2022-08-21T06:40:29;17.70;99.90
52415;DHT22;38340;52.964;6.086;2022-08-21T06:42:56;17.70;99.90
52415;DHT22;38340;52.964;6.086;2022-08-21T06:45:23;17.90;99.90
52415;DHT22;38340;52.964;6.086;2022-08-21T06:47:48;18.00;99.90
52415;DHT22;38340;52.964;6.086;2022-08-21T06:50:14;18.00;99.90
52415;DHT22;38340;52.964;6.086;2022-08-21T06:52:40;18.00;99.90
52415;DHT22;38340;52.964;6.086;2022-08-21T06:55:08;18.10;99.90
52415;DHT22;38340;52.964;6.086;2022-08-21T06:57:34;18.20;99.90
52415;DHT22;38340;52.964;6.086;2022-08-21T07:00:01;18.40;99.90
52415;DHT22;38340;52.964;6.086;2022-08-21T07:02:26;18.60;99.90
52415;DHT22;38340;52.964;6.086;2022-08-21T07:04:52;18.60;99.90
52415;DHT22;38340;52.964;6.086;2022-08-21T07:07:18;18.80;99.90
52415;DHT22;38340;52.964;6.086;2022-08-21T07:09:43;18.90;99.90
52415;DHT22;38340;52.964;6.086;2022-08-21T07:12:09;19.00;99.90
52415;DHT22;38340;52.964;6.086;2022-08-21T07:14:35;19.10;99.90
52415;DHT22;38340;52.964;6.086;2022-08-21T07:17:01;19.30;99.90
52415;DHT22;38340;52.964;6.086;2022-08-21T07:19:27;19.40;99.90
52415;DHT22;38340;52.964;6.086;2022-08-21T07:21:58;19.50;99.90
52415;DHT22;38340;52.964;6.086;2022-08-21T07:24:25;19.60;99.90
52415;DHT22;38340;52.964;6.086;2022-08-21T07:26:51;19.60;99.90
52415;DHT22;38340;52.964;6.086;2022-08-21T07:29:17;19.70;99.90
52415;DHT22;38340;52.964;6.086;2022-08-21T07:31:44;19.70;99.90
52415;DHT22;38340;52.964;6.086;2022-08-21T07:34:09;19.90;99.90
52415;DHT22;38340;52.964;6.086;2022-08-21T07:36:35;19.90;99.90
52415;DHT22;38340;52.964;6.086;2022-08-21T07:39:01;20.00;99.90
52415;DHT22;38340;52.964;6.086;2022-08-21T07:41:28;20.10;99.90
52415;DHT22;38340;52.964;6.086;2022-08-21T07:43:56;20.00;99.90
52415;DHT22;38340;52.964;6.086;2022-08-21T07:46:23;20.10;99.90
52415;DHT22;38340;52.964;6.086;2022-08-21T07:48:49;20.30;99.90
52415;DHT22;38340;52.964;6.086;2022-08-21T07:51:16;20.40;99.90
52415;DHT22;38340;52.964;6.086;2022-08-21T07:53:47;20.50;99.90
52415;DHT22;38340;52.964;6.086;2022-08-21T07:56:12;20.60;99.90
52415;DHT22;38340;52.964;6.086;2022-08-21T07:58:38;20.70;99.90
52415;DHT22;38340;52.964;6.086;2022-08-21T08:01:06;20.80;99.90
52415;DHT22;38340;52.964;6.086;2022-08-21T08:03:32;20.80;99.90
52415;DHT22;38340;52.964;6.086;2022-08-21T08:05:58;20.90;99.90
52415;DHT22;38340;52.964;6.086;2022-08-21T08:08:24;21.10;99.90
52415;DHT22;38340;52.964;6.086;2022-08-21T08:10:50;21.00;99.90
52415;DHT22;38340;52.964;6.086;2022-08-21T08:13:17;21.00;99.90
52415;DHT22;38340;52.964;6.086;2022-08-21T08:15:42;21.00;99.90
52415;DHT22;38340;52.964;6.086;2022-08-21T08:18:08;21.00;99.90
52415;DHT22;38340;52.964;6.086;2022-08-21T08:20:34;21.00;99.90
52415;DHT22;38340;52.964;6.086;2022-08-21T08:22:59;21.00;99.90
52415;DHT22;38340;52.964;6.086;2022-08-21T08:25:26;21.10;99.90
52415;DHT22;38340;52.964;6.086;2022-08-21T08:27:52;21.30;99.90
52415;DHT22;38340;52.964;6.086;2022-08-21T08:30:19;21.40;99.90
52415;DHT22;38340;52.964;6.086;2022-08-21T08:32:45;21.50;99.90
52415;DHT22;38340;52.964;6.086;2022-08-21T08:35:11;21.50;99.90
52415;DHT22;38340;52.964;6.086;2022-08-21T08:37:38;21.60;99.90
52415;DHT22;38340;52.964;6.086;2022-08-21T08:40:10;21.70;99.90
52415;DHT22;38340;52.964;6.086;2022-08-21T08:42:36;22.00;99.90
52415;DHT22;38340;52.964;6.086;2022-08-21T08:45:10;21.90;99.90
52415;DHT22;38340;52.964;6.086;2022-08-21T08:47:44;21.70;99.90
52415;DHT22;38340;52.964;6.086;2022-08-21T08:50:28;21.90;99.90
52415;DHT22;38340;52.964;6.086;2022-08-21T08:53:04;21.90;99.90
52415;DHT22;38340;52.964;6.086;2022-08-21T08:55:36;22.10;99.90
52415;DHT22;38340;52.964;6.086;2022-08-21T08:58:03;22.30;99.90
52415;DHT22;38340;52.964;6.086;2022-08-21T09:00:30;22.50;99.90
52415;DHT22;38340;52.964;6.086;2022-08-21T09:02:57;22.80;99.90
52415;DHT22;38340;52.964;6.086;2022-08-21T09:05:43;23.00;99.90
52415;DHT22;38340;52.964;6.086;2022-08-21T09:13:53;22.50;99.90
52415;DHT22;38340;52.964;6.086;2022-08-21T09:16:27;22.40;99.90
52415;DHT22;38340;52.964;6.086;2022-08-21T09:27:18;22.90;99.90
52415;DHT22;38340;52.964;6.086;2022-08-21T09:29:47;23.00;99.90
52415;DHT22;38340;52.964;6.086;2022-08-21T09:32:21;23.10;99.90
52415;DHT22;38340;52.964;6.086;2022-08-21T09:35:20;23.50;99.90
52415;DHT22;38340;52.964;6.086;2022-08-21T09:40:46;23.60;99.90
52415;DHT22;38340;52.964;6.086;2022-08-21T09:43:21;23.80;99.90
52415;DHT22;38340;52.964;6.086;2022-08-21T09:45:49;24.10;99.90
52415;DHT22;38340;52.964;6.086;2022-08-21T09:48:20;24.30;99.90
52415;DHT22;38340;52.964;6.086;2022-08-21T09:50:47;24.30;99.90
52415;DHT22;38340;52.964;6.086;2022-08-21T09:53:23;24.40;99.90
52415;DHT22;38340;52.964;6.086;2022-08-21T09:55:56;24.40;99.90
52415;DHT22;38340;52.964;6.086;2022-08-21T09:58:45;24.50;99.90
52415;DHT22;38340;52.964;6.086;2022-08-21T10:01:21;24.70;99.90
52415;DHT22;38340;52.964;6.086;2022-08-21T10:03:48;24.80;99.90
52415;DHT22;38340;52.964;6.086;2022-08-21T10:06:26;24.30;99.90
52415;DHT22;38340;52.964;6.086;2022-08-21T10:09:05;24.30;99.90
52415;DHT22;38340;52.964;6.086;2022-08-21T10:11:32;24.30;99.90
52415;DHT22;38340;52.964;6.086;2022-08-21T10:14:05;24.40;99.90
52415;DHT22;38340;52.964;6.086;2022-08-21T10:16:38;24.30;99.90
52415;DHT22;38340;52.964;6.086;2022-08-21T10:21:57;23.50;99.90
52415;DHT22;38340;52.964;6.086;2022-08-21T10:27:16;23.10;99.90
52415;DHT22;38340;52.964;6.086;2022-08-21T10:29:55;23.10;99.90
52415;DHT22;38340;52.964;6.086;2022-08-21T10:40:36;24.20;99.90
52415;DHT22;38340;52.964;6.086;2022-08-21T10:54:38;23.60;99.90
52415;DHT22;38340;52.964;6.086;2022-08-21T10:57:12;23.50;99.90
52415;DHT22;38340;52.964;6.086;2022-08-21T10:59:57;23.60;99.90
52415;DHT22;38340;52.964;6.086;2022-08-21T11:02:31;23.70;99.90
52415;DHT22;38340;52.964;6.086;2022-08-21T11:05:01;23.70;99.90
52415;DHT22;38340;52.964;6.086;2022-08-21T11:07:48;23.60;99.90
52415;DHT22;38340;52.964;6.086;2022-08-21T11:10:25;23.40;99.90
52415;DHT22;38340;52.964;6.086;2022-08-21T11:12:59;23.40;99.90
52415;DHT22;38340;52.964;6.086;2022-08-21T11:15:38;23.70;99.90
52415;DHT22;38340;52.964;6.086;2022-08-21T11:18:26;23.70;99.90
52415;DHT22;38340;52.964;6.086;2022-08-21T11:23:53;24.10;99.90
52415;DHT22;38340;52.964;6.086;2022-08-21T11:26:37;24.00;99.90
52415;DHT22;38340;52.964;6.086;2022-08-21T11:29:13;23.80;99.90
52415;DHT22;38340;52.964;6.086;2022-08-21T11:32:07;23.60;99.90
52415;DHT22;38340;52.964;6.086;2022-08-21T11:40:09;23.30;99.90
52415;DHT22;38340;52.964;6.086;2022-08-21T11:50:38;23.10;99.90
52415;DHT22;38340;52.964;6.086;2022-08-21T11:53:14;23.20;99.90
52415;DHT22;38340;52.964;6.086;2022-08-21T11:55:46;23.20;99.90
52415;DHT22;38340;52.964;6.086;2022-08-21T11:58:27;23.30;99.90
52415;DHT22;38340;52.964;6.086;2022-08-21T12:01:00;23.10;99.90
52415;DHT22;38340;52.964;6.086;2022-08-21T12:03:33;22.80;99.90
52415;DHT22;38340;52.964;6.086;2022-08-21T12:06:01;22.60;99.90
52415;DHT22;38340;52.964;6.086;2022-08-21T12:08:31;22.60;99.90
52415;DHT22;38340;52.964;6.086;2022-08-21T12:11:09;22.40;99.90
52415;DHT22;38340;52.964;6.086;2022-08-21T12:13:38;22.40;99.90
52415;DHT22;38340;52.964;6.086;2022-08-21T12:16:07;22.30;99.90
52415;DHT22;38340;52.964;6.086;2022-08-21T12:18:33;22.20;99.90
52415;DHT22;38340;52.964;6.086;2022-08-21T12:21:16;22.10;99.90
52415;DHT22;38340;52.964;6.086;2022-08-21T12:23:49;22.10;99.90
52415;DHT22;38340;52.964;6.086;2022-08-21T12:26:33;22.20;99.90
52415;DHT22;38340;52.964;6.086;2022-08-21T12:29:32;22.30;99.90
52415;DHT22;38340;52.964;6.086;2022-08-21T12:32:28;22.40;99.90
52415;DHT22;38340;52.964;6.086;2022-08-21T12:35:06;22.60;99.90
52415;DHT22;38340;52.964;6.086;2022-08-21T12:37:38;22.70;99.90
52415;DHT22;38340;52.964;6.086;2022-08-21T12:42:47;22.60;99.90
52415;DHT22;38340;52.964;6.086;2022-08-21T12:45:42;22.60;99.90
52415;DHT22;38340;52.964;6.086;2022-08-21T12:48:15;22.50;99.90
52415;DHT22;38340;52.964;6.086;2022-08-21T12:50:57;22.50;99.90
52415;DHT22;38340;52.964;6.086;2022-08-21T12:53:33;22.30;99.90
52415;DHT22;38340;52.964;6.086;2022-08-21T12:56:07;22.20;99.90
52415;DHT22;38340;52.964;6.086;2022-08-21T12:58:34;22.00;99.90
52415;DHT22;38340;52.964;6.086;2022-08-21T13:01:06;22.00;99.90
52415;DHT22;38340;52.964;6.086;2022-08-21T13:03:35;22.10;99.90
52415;DHT22;38340;52.964;6.086;2022-08-21T13:06:04;22.30;99.90
52415;DHT22;38340;52.964;6.086;2022-08-21T13:08:31;22.70;99.90
52415;DHT22;38340;52.964;6.086;2022-08-21T13:11:02;23.20;99.90
52415;DHT22;38340;52.964;6.086;2022-08-21T13:13:29;23.40;99.90
52415;DHT22;38340;52.964;6.086;2022-08-21T13:16:00;23.70;99.90
52415;DHT22;38340;52.964;6.086;2022-08-21T13:18:30;23.90;99.90
52415;DHT22;38340;52.964;6.086;2022-08-21T13:21:14;24.10;99.90
52415;DHT22;38340;52.964;6.086;2022-08-21T13:23:40;24.10;99.90
52415;DHT22;38340;52.964;6.086;2022-08-21T13:28:39;24.10;99.90
52415;DHT22;38340;52.964;6.086;2022-08-21T13:31:08;24.10;99.90
52415;DHT22;38340;52.964;6.086;2022-08-21T13:33:40;24.10;99.90
52415;DHT22;38340;52.964;6.086;2022-08-21T13:36:24;24.00;99.90
52415;DHT22;38340;52.964;6.086;2022-08-21T13:38:52;23.90;99.90
52415;DHT22;38340;52.964;6.086;2022-08-21T13:41:25;24.00;99.90
52415;DHT22;38340;52.964;6.086;2022-08-21T13:46:39;24.00;99.90
52415;DHT22;38340;52.964;6.086;2022-08-21T13:49:05;24.00;99.90
52415;DHT22;38340;52.964;6.086;2022-08-21T13:51:31;24.20;99.90
52415;DHT22;38340;52.964;6.086;2022-08-21T13:53:58;24.30;99.90
52415;DHT22;38340;52.964;6.086;2022-08-21T13:56:31;24.30;99.90
52415;DHT22;38340;52.964;6.086;2022-08-21T13:59:00;24.20;99.90
52415;DHT22;38340;52.964;6.086;2022-08-21T14:01:48;24.10;99.90
52415;DHT22;38340;52.964;6.086;2022-08-21T14:04:20;24.00;99.90
52415;DHT22;38340;52.964;6.086;2022-08-21T14:06:47;24.00;99.90
52415;DHT22;38340;52.964;6.086;2022-08-21T14:09:34;23.90;99.90
52415;DHT22;38340;52.964;6.086;2022-08-21T14:12:11;23.70;99.90
52415;DHT22;38340;52.964;6.086;2022-08-21T14:14:39;23.70;99.90
52415;DHT22;38340;52.964;6.086;2022-08-21T14:17:13;23.50;99.90
52415;DHT22;38340;52.964;6.086;2022-08-21T14:19:45;23.70;99.90
52415;DHT22;38340;52.964;6.086;2022-08-21T14:27:34;23.90;99.90
52415;DHT22;38340;52.964;6.086;2022-08-21T14:30:10;23.50;99.90
52415;DHT22;38340;52.964;6.086;2022-08-21T14:32:39;23.40;99.90
52415;DHT22;38340;52.964;6.086;2022-08-21T14:35:05;23.40;99.90
52415;DHT22;38340;52.964;6.086;2022-08-21T14:37:32;23.50;99.90
52415;DHT22;38340;52.964;6.086;2022-08-21T14:39:57;23.60;99.90
52415;DHT22;38340;52.964;6.086;2022-08-21T14:42:24;23.60;99.90
52415;DHT22;38340;52.964;6.086;2022-08-21T14:44:50;23.50;99.90
52415;DHT22;38340;52.964;6.086;2022-08-21T14:47:16;23.40;99.90
52415;DHT22;38340;52.964;6.086;2022-08-21T14:49:42;23.40;99.90
52415;DHT22;38340;52.964;6.086;2022-08-21T14:52:08;23.40;99.90
52415;DHT22;38340;52.964;6.086;2022-08-21T14:54:34;23.30;99.90
52415;DHT22;38340;52.964;6.086;2022-08-21T14:57:06;23.30;99.90
52415;DHT22;38340;52.964;6.086;2022-08-21T14:59:32;23.30;99.90
52415;DHT22;38340;52.964;6.086;2022-08-21T15:01:58;23.40;99.90
52415;DHT22;38340;52.964;6.086;2022-08-21T15:04:24;23.40;99.90
52415;DHT22;38340;52.964;6.086;2022-08-21T15:06:50;23.30;99.90
52415;DHT22;38340;52.964;6.086;2022-08-21T15:09:16;23.40;99.90
52415;DHT22;38340;52.964;6.086;2022-08-21T15:11:42;23.40;99.90
52415;DHT22;38340;52.964;6.086;2022-08-21T15:14:10;23.40;99.90
52415;DHT22;38340;52.964;6.086;2022-08-21T15:16:38;23.40;99.90
52415;DHT22;38340;52.964;6.086;2022-08-21T15:19:04;23.40;99.90
52415;DHT22;38340;52.964;6.086;2022-08-21T15:21:29;23.50;99.90
52415;DHT22;38340;52.964;6.086;2022-08-21T15:23:55;23.50;99.90
52415;DHT22;38340;52.964;6.086;2022-08-21T15:26:23;23.60;99.90
52415;DHT22;38340;52.964;6.086;2022-08-21T15:28:49;23.70;99.90
52415;DHT22;38340;52.964;6.086;2022-08-21T15:31:14;23.60;99.90
52415;DHT22;38340;52.964;6.086;2022-08-21T15:33:40;23.50;99.90
52415;DHT22;38340;52.964;6.086;2022-08-21T15:36:06;23.30;99.90
52415;DHT22;38340;52.964;6.086;2022-08-21T15:38:32;23.30;99.90
52415;DHT22;38340;52.964;6.086;2022-08-21T15:40:58;23.40;99.90
52415;DHT22;38340;52.964;6.086;2022-08-21T15:43:35;23.40;99.90
52415;DHT22;38340;52.964;6.086;2022-08-21T15:46:02;23.50;99.90
52415;DHT22;38340;52.964;6.086;2022-08-21T15:48:28;23.40;99.90
52415;DHT22;38340;52.964;6.086;2022-08-21T15:50:54;23.20;99.90
52415;DHT22;38340;52.964;6.086;2022-08-21T15:53:20;23.30;99.90
52415;DHT22;38340;52.964;6.086;2022-08-21T15:55:46;23.40;99.90
52415;DHT22;38340;52.964;6.086;2022-08-21T15:58:15;23.60;99.90
52415;DHT22;38340;52.964;6.086;2022-08-21T16:00:43;23.70;99.90
52415;DHT22;38340;52.964;6.086;2022-08-21T16:03:11;23.80;99.90
52415;DHT22;38340;52.964;6.086;2022-08-21T16:05:41;23.80;99.90
52415;DHT22;38340;52.964;6.086;2022-08-21T16:08:07;23.80;99.90
52415;DHT22;38340;52.964;6.086;2022-08-21T16:10:35;23.70;99.90
52415;DHT22;38340;52.964;6.086;2022-08-21T16:13:04;23.70;99.90
52415;DHT22;38340;52.964;6.086;2022-08-21T16:15:30;23.50;99.90
52415;DHT22;38340;52.964;6.086;2022-08-21T16:17:56;23.50;99.90
52415;DHT22;38340;52.964;6.086;2022-08-21T16:20:25;23.40;99.90
52415;DHT22;38340;52.964;6.086;2022-08-21T16:22:53;23.20;99.90
52415;DHT22;38340;52.964;6.086;2022-08-21T16:25:19;23.20;99.90
52415;DHT22;38340;52.964;6.086;2022-08-21T16:27:48;22.90;99.90
52415;DHT22;38340;52.964;6.086;2022-08-21T16:30:16;22.90;99.90
52415;DHT22;38340;52.964;6.086;2022-08-21T16:32:43;22.80;99.90
52415;DHT22;38340;52.964;6.086;2022-08-21T16:35:13;22.50;99.90
52415;DHT22;38340;52.964;6.086;2022-08-21T16:37:39;22.40;99.90
52415;DHT22;38340;52.964;6.086;2022-08-21T16:40:06;22.30;99.90
52415;DHT22;38340;52.964;6.086;2022-08-21T16:42:34;22.10;99.90
52415;DHT22;38340;52.964;6.086;2022-08-21T16:45:00;22.10;99.90
52415;DHT22;38340;52.964;6.086;2022-08-21T16:47:29;21.90;99.90
52415;DHT22;38340;52.964;6.086;2022-08-21T16:49:56;21.70;99.90
52415;DHT22;38340;52.964;6.086;2022-08-21T16:52:23;21.70;99.90
52415;DHT22;38340;52.964;6.086;2022-08-21T16:54:48;21.60;99.90